Time;durP1;ratioP1;P1;durP2;ratioP2;P2;SDS_P1;SDS_P2;PMS_P1;PMS_P2;Temp;Humidity;BMP_temperature;BMP_pressure;BME280_temperature;BME280_humidity;BME280_pressure;Samples;Min_cycle;Max_cycle;Signal;HPM_P1;HPM_P2
2023/06/30 00:01:28;;;;;;;;;;;26.30;52.00;;;;;;4909410;29;19911;-90
2023/06/30 00:03:55;;;;;;;;;;;26.30;52.00;;;;;;4901535;29;19935;-90
2023/06/30 00:06:21;;;;;;;;;;;26.30;52.00;;;;;;4907255;29;19942;-90
2023/06/30 00:08:48;;;;;;;;;;;26.30;52.00;;;;;;4917879;29;20287;-90
2023/06/30 00:11:14;;;;;;;;;;;26.30;52.00;;;;;;4903791;29;19911;-90
2023/06/30 00:13:39;;;;;;;;;;;26.30;52.00;;;;;;4897944;29;19911;-90
2023/06/30 00:16:05;;;;;;;;;;;26.30;52.00;;;;;;4901223;29;19955;-90
2023/06/30 00:18:30;;;;;;;;;;;26.30;52.00;;;;;;4913089;29;19915;-90
2023/06/30 00:20:57;;;;;;;;;;;26.20;52.00;;;;;;4912221;29;20225;-90
2023/06/30 00:23:24;;;;;;;;;;;26.20;52.00;;;;;;4907882;29;19911;-89
2023/06/30 00:25:50;;;;;;;;;;;26.20;52.00;;;;;;4901454;29;20173;-90
2023/06/30 00:28:15;;;;;;;;;;;26.20;52.00;;;;;;4906410;29;19925;-89
2023/06/30 00:30:41;;;;;;;;;;;26.20;52.00;;;;;;4911473;29;19974;-90
2023/06/30 00:33:07;;;;;;;;;;;26.20;52.00;;;;;;4908666;29;19915;-90
2023/06/30 00:35:33;;;;;;;;;;;26.20;52.10;;;;;;4908133;29;19912;-90
2023/06/30 00:38:06;;;;;;;;;;;26.20;52.10;;;;;;4904598;29;20276;-90
2023/06/30 00:40:32;;;;;;;;;;;26.20;52.00;;;;;;4902647;29;19983;-90
2023/06/30 00:43:00;;;;;;;;;;;26.20;52.10;;;;;;4905138;29;19915;-90
2023/06/30 00:45:26;;;;;;;;;;;26.10;52.00;;;;;;4900943;29;19912;-90
2023/06/30 00:47:52;;;;;;;;;;;26.10;52.00;;;;;;4908714;29;20378;-90
2023/06/30 00:50:25;;;;;;;;;;;26.10;52.00;;;;;;4908497;29;19951;-90
2023/06/30 00:52:51;;;;;;;;;;;26.10;52.10;;;;;;4900484;29;19958;-89
2023/06/30 00:55:17;;;;;;;;;;;26.10;52.10;;;;;;4902638;29;19947;-90
2023/06/30 00:57:42;;;;;;;;;;;26.10;52.10;;;;;;4886783;29;19926;-89
2023/06/30 01:00:11;;;;;;;;;;;26.10;52.10;;;;;;4904205;29;19922;-90
2023/06/30 01:02:43;;;;;;;;;;;26.10;52.20;;;;;;4902825;29;20004;-90
2023/06/30 01:05:30;;;;;;;;;;;26.10;52.10;;;;;;4903875;29;19958;-89
2023/06/30 01:08:03;;;;;;;;;;;26.10;52.10;;;;;;4911279;29;20709;-89
2023/06/30 01:10:30;;;;;;;;;;;26.00;52.10;;;;;;4916054;29;19921;-89
2023/06/30 01:12:56;;;;;;;;;;;26.00;52.00;;;;;;4903237;29;19995;-89
2023/06/30 01:15:24;;;;;;;;;;;26.00;52.10;;;;;;4904575;29;19912;-90
2023/06/30 01:17:56;;;;;;;;;;;26.00;52.10;;;;;;4909072;29;19966;-90
2023/06/30 01:20:23;;;;;;;;;;;26.00;52.10;;;;;;4942232;29;19915;-90
2023/06/30 01:22:50;;;;;;;;;;;26.00;52.10;;;;;;4931542;29;19962;-91
2023/06/30 01:25:21;;;;;;;;;;;26.00;52.10;;;;;;4919698;29;20002;-90
2023/06/30 01:27:47;;;;;;;;;;;26.00;52.10;;;;;;4934187;29;19962;-90
2023/06/30 01:30:15;;;;;;;;;;;26.00;52.10;;;;;;4926904;29;19997;-90
2023/06/30 01:32:41;;;;;;;;;;;25.90;52.10;;;;;;4898425;29;19911;-90
2023/06/30 01:35:09;;;;;;;;;;;25.90;52.10;;;;;;4926176;29;19978;-90
2023/06/30 01:37:35;;;;;;;;;;;25.90;52.10;;;;;;4919464;29;19967;-91
2023/06/30 01:40:00;;;;;;;;;;;25.90;52.10;;;;;;4916828;29;20396;-91
2023/06/30 01:42:26;;;;;;;;;;;25.90;52.10;;;;;;4920640;29;19915;-92
2023/06/30 01:44:52;;;;;;;;;;;25.90;52.10;;;;;;4910760;29;19915;-91
2023/06/30 01:47:18;;;;;;;;;;;25.90;52.10;;;;;;4902802;29;20157;-91
2023/06/30 01:49:44;;;;;;;;;;;25.90;52.10;;;;;;4900367;29;19911;-91
2023/06/30 01:52:09;;;;;;;;;;;25.90;52.10;;;;;;4905351;29;19912;-91
2023/06/30 01:54:35;;;;;;;;;;;25.90;52.10;;;;;;4905926;29;19911;-91
2023/06/30 01:57:01;;;;;;;;;;;25.80;52.10;;;;;;4910807;29;19911;-91
2023/06/30 01:59:26;;;;;;;;;;;25.80;52.10;;;;;;4902660;29;19915;-91
2023/06/30 02:01:52;;;;;;;;;;;25.80;52.10;;;;;;4898981;29;19916;-91
2023/06/30 02:04:17;;;;;;;;;;;25.80;52.10;;;;;;4901899;29;19916;-90
2023/06/30 02:06:43;;;;;;;;;;;25.80;52.10;;;;;;4910797;29;19923;-91
2023/06/30 02:09:08;;;;;;;;;;;25.80;52.10;;;;;;4913242;29;19915;-91
2023/06/30 02:11:34;;;;;;;;;;;25.80;52.10;;;;;;4905258;29;19917;-91
2023/06/30 02:14:00;;;;;;;;;;;25.80;52.10;;;;;;4903376;29;20058;-91
2023/06/30 02:16:25;;;;;;;;;;;25.80;52.10;;;;;;4903482;29;19922;-91
2023/06/30 02:18:54;;;;;;;;;;;25.80;52.10;;;;;;4902469;29;20169;-91
2023/06/30 02:21:21;;;;;;;;;;;25.70;52.10;;;;;;4926112;29;19925;-91
2023/06/30 02:23:47;;;;;;;;;;;25.70;52.10;;;;;;4906022;29;19926;-89
2023/06/30 02:26:13;;;;;;;;;;;25.70;52.10;;;;;;4927240;28;19903;-91
2023/06/30 02:28:38;;;;;;;;;;;25.70;52.10;;;;;;4924662;29;19931;-90
2023/06/30 02:31:04;;;;;;;;;;;25.70;52.10;;;;;;4918100;29;20316;-91
2023/06/30 02:33:29;;;;;;;;;;;25.70;52.10;;;;;;4907324;29;19911;-91
2023/06/30 02:35:55;;;;;;;;;;;25.70;52.10;;;;;;4909508;29;19962;-91
2023/06/30 02:38:21;;;;;;;;;;;25.70;52.10;;;;;;4934231;29;19923;-92
2023/06/30 02:40:47;;;;;;;;;;;25.70;52.10;;;;;;4911252;29;19986;-92
2023/06/30 02:43:13;;;;;;;;;;;25.70;52.10;;;;;;4912186;29;19915;-92
2023/06/30 02:45:38;;;;;;;;;;;25.60;52.10;;;;;;4910141;29;20024;-92
2023/06/30 02:48:04;;;;;;;;;;;25.70;52.10;;;;;;4908602;29;19974;-91
2023/06/30 02:50:30;;;;;;;;;;;25.60;52.10;;;;;;4919764;29;19919;-91
2023/06/30 02:52:58;;;;;;;;;;;25.60;52.10;;;;;;4891179;29;19915;-91
2023/06/30 02:55:24;;;;;;;;;;;25.60;52.10;;;;;;4909003;29;19923;-91
2023/06/30 02:57:49;;;;;;;;;;;25.60;52.10;;;;;;4904206;29;19911;-91
2023/06/30 03:00:15;;;;;;;;;;;25.60;52.10;;;;;;4905724;29;19953;-91
2023/06/30 03:02:42;;;;;;;;;;;25.60;52.10;;;;;;4911360;29;19915;-92
2023/06/30 03:05:08;;;;;;;;;;;25.60;52.10;;;;;;4904726;29;19922;-91
2023/06/30 03:07:33;;;;;;;;;;;25.60;52.10;;;;;;4909411;29;19911;-92
2023/06/30 03:09:59;;;;;;;;;;;25.60;52.10;;;;;;4904285;29;19981;-92
2023/06/30 03:12:25;;;;;;;;;;;25.60;52.10;;;;;;4906191;29;19916;-92
2023/06/30 03:14:51;;;;;;;;;;;25.50;52.10;;;;;;4902377;29;19912;-92
2023/06/30 03:17:16;;;;;;;;;;;25.50;52.10;;;;;;4906643;29;19961;-92
2023/06/30 03:19:42;;;;;;;;;;;25.60;52.20;;;;;;4904494;29;19928;-92
2023/06/30 03:22:08;;;;;;;;;;;25.50;52.10;;;;;;4895365;29;20000;-92
2023/06/30 03:24:35;;;;;;;;;;;25.50;52.10;;;;;;4915131;29;19922;-92
2023/06/30 03:27:01;;;;;;;;;;;25.50;52.10;;;;;;4932413;29;19915;-92
2023/06/30 03:29:29;;;;;;;;;;;25.50;52.10;;;;;;4907470;29;19990;-92
2023/06/30 03:31:55;;;;;;;;;;;25.50;52.10;;;;;;4904958;29;19920;-92
2023/06/30 03:34:20;;;;;;;;;;;25.50;52.10;;;;;;4908005;29;20002;-92
2023/06/30 03:36:46;;;;;;;;;;;25.50;52.10;;;;;;4910875;29;20279;-92
2023/06/30 03:39:13;;;;;;;;;;;25.40;52.00;;;;;;4908447;29;19922;-92
2023/06/30 03:41:38;;;;;;;;;;;25.40;52.00;;;;;;4938680;29;19911;-91
2023/06/30 03:44:04;;;;;;;;;;;25.40;52.00;;;;;;4938983;28;19919;-91
2023/06/30 03:46:29;;;;;;;;;;;25.40;52.00;;;;;;4920871;29;19924;-90
2023/06/30 03:48:55;;;;;;;;;;;25.40;52.00;;;;;;4911417;29;19916;-92
2023/06/30 03:51:21;;;;;;;;;;;25.40;52.00;;;;;;4917979;29;19922;-91
2023/06/30 03:53:46;;;;;;;;;;;25.40;52.00;;;;;;4928602;29;19911;-92
2023/06/30 03:56:12;;;;;;;;;;;25.40;52.00;;;;;;4904002;29;19911;-91
2023/06/30 03:58:38;;;;;;;;;;;25.40;52.00;;;;;;4904263;29;20411;-92
2023/06/30 04:01:04;;;;;;;;;;;25.40;52.00;;;;;;4917967;29;19946;-92
2023/06/30 04:03:30;;;;;;;;;;;25.40;52.00;;;;;;4943867;29;19914;-91
2023/06/30 04:05:56;;;;;;;;;;;25.40;52.00;;;;;;4925817;29;19910;-91
2023/06/30 04:08:21;;;;;;;;;;;25.40;52.00;;;;;;4918695;29;19916;-92
2023/06/30 04:10:48;;;;;;;;;;;25.40;52.00;;;;;;4912784;29;19911;-91
2023/06/30 04:13:13;;;;;;;;;;;25.30;52.00;;;;;;4910609;29;19911;-91
2023/06/30 04:15:39;;;;;;;;;;;25.30;52.00;;;;;;4923631;29;20283;-92
2023/06/30 04:18:05;;;;;;;;;;;25.40;52.00;;;;;;4930128;29;19923;-91
2023/06/30 04:20:31;;;;;;;;;;;25.30;51.90;;;;;;4916002;29;19983;-91
2023/06/30 04:22:56;;;;;;;;;;;25.30;51.90;;;;;;4896507;29;19926;-91
2023/06/30 04:25:22;;;;;;;;;;;25.30;52.00;;;;;;4918894;29;19943;-91
2023/06/30 04:27:49;;;;;;;;;;;25.30;51.90;;;;;;4949457;29;19958;-92
2023/06/30 04:30:14;;;;;;;;;;;25.30;52.00;;;;;;4933769;29;19921;-91
2023/06/30 04:32:40;;;;;;;;;;;25.30;52.00;;;;;;4914484;29;20001;-92
2023/06/30 04:35:07;;;;;;;;;;;25.30;51.90;;;;;;4913793;29;20200;-92
2023/06/30 04:37:40;;;;;;;;;;;25.30;51.90;;;;;;4910410;29;19980;-92
2023/06/30 04:40:06;;;;;;;;;;;25.30;52.10;;;;;;4902455;29;19915;-91
2023/06/30 04:42:32;;;;;;;;;;;25.30;51.90;;;;;;4915402;29;19911;-91
2023/06/30 04:44:58;;;;;;;;;;;25.30;51.90;;;;;;4914231;29;19934;-92
2023/06/30 04:47:23;;;;;;;;;;;25.30;52.30;;;;;;4935573;29;20243;-91
2023/06/30 04:49:49;;;;;;;;;;;25.20;51.90;;;;;;4940291;29;19922;-92
2023/06/30 04:52:17;;;;;;;;;;;25.30;51.90;;;;;;4923229;29;19911;-91
2023/06/30 04:54:43;;;;;;;;;;;25.20;51.90;;;;;;4909620;29;19946;-91
2023/06/30 04:57:09;;;;;;;;;;;25.20;51.90;;;;;;4916401;29;19916;-91
2023/06/30 04:59:35;;;;;;;;;;;25.20;51.90;;;;;;4907085;29;19916;-91
2023/06/30 05:02:01;;;;;;;;;;;25.20;51.90;;;;;;4915463;29;19911;-92
2023/06/30 05:04:26;;;;;;;;;;;25.20;51.90;;;;;;4907803;29;19915;-92
2023/06/30 05:06:52;;;;;;;;;;;25.20;51.90;;;;;;4912250;29;19921;-91
2023/06/30 05:09:21;;;;;;;;;;;25.30;51.90;;;;;;4908346;29;19918;-91
2023/06/30 05:11:47;;;;;;;;;;;25.20;51.80;;;;;;4906640;29;19912;-91
2023/06/30 05:14:21;;;;;;;;;;;25.30;51.80;;;;;;4890161;29;19915;-91
2023/06/30 05:16:47;;;;;;;;;;;25.30;51.80;;;;;;4899813;29;20268;-92
2023/06/30 05:19:12;;;;;;;;;;;25.30;51.70;;;;;;4899709;29;19943;-91
2023/06/30 05:21:38;;;;;;;;;;;25.30;52.10;;;;;;4900016;29;19919;-91
2023/06/30 05:24:04;;;;;;;;;;;25.30;51.70;;;;;;4900329;29;19923;-92
2023/06/30 05:26:29;;;;;;;;;;;25.30;51.70;;;;;;4898888;29;19918;-91
2023/06/30 05:28:55;;;;;;;;;;;25.30;51.60;;;;;;4898741;29;19995;-91
2023/06/30 05:31:20;;;;;;;;;;;25.40;51.70;;;;;;4902580;29;19919;-91
2023/06/30 05:33:55;;;;;;;;;;;25.40;51.60;;;;;;4901361;29;20040;-91
2023/06/30 05:36:21;;;;;;;;;;;25.40;51.60;;;;;;4893039;29;19910;-91
2023/06/30 05:38:47;;;;;;;;;;;25.40;51.50;;;;;;4899751;29;20199;-90
2023/06/30 05:41:13;;;;;;;;;;;25.40;51.50;;;;;;4897631;29;19919;-91
2023/06/30 05:43:40;;;;;;;;;;;25.40;51.50;;;;;;4886555;29;19979;-91
2023/06/30 05:46:05;;;;;;;;;;;25.40;51.50;;;;;;4887972;29;20139;-90
2023/06/30 05:48:31;;;;;;;;;;;25.40;51.50;;;;;;4894637;29;19912;-90
2023/06/30 05:50:59;;;;;;;;;;;25.40;51.40;;;;;;4896476;29;19915;-91
2023/06/30 05:53:25;;;;;;;;;;;25.40;51.40;;;;;;4897856;29;20240;-90
2023/06/30 05:55:50;;;;;;;;;;;25.50;51.50;;;;;;4893498;29;20002;-90
2023/06/30 05:58:16;;;;;;;;;;;25.50;51.50;;;;;;4898163;29;20128;-90
2023/06/30 06:00:41;;;;;;;;;;;25.50;51.40;;;;;;4895474;29;20122;-90
2023/06/30 06:03:07;;;;;;;;;;;25.50;51.40;;;;;;4897453;29;19934;-90
2023/06/30 06:05:33;;;;;;;;;;;25.50;51.40;;;;;;4895116;29;20063;-90
2023/06/30 06:07:58;;;;;;;;;;;25.50;51.40;;;;;;4895998;29;19996;-90
2023/06/30 06:10:24;;;;;;;;;;;25.50;51.40;;;;;;4893216;29;19919;-90
2023/06/30 06:12:51;;;;;;;;;;;25.60;51.40;;;;;;4896444;29;19911;-90
2023/06/30 06:15:16;;;;;;;;;;;25.60;51.40;;;;;;4897105;29;19920;-90
2023/06/30 06:17:42;;;;;;;;;;;25.60;51.30;;;;;;4894537;29;19931;-90
2023/06/30 06:20:08;;;;;;;;;;;25.60;51.30;;;;;;4897404;29;19926;-90
2023/06/30 06:22:33;;;;;;;;;;;25.60;51.20;;;;;;4896767;29;19976;-90
2023/06/30 06:24:59;;;;;;;;;;;25.70;51.20;;;;;;4896065;29;19915;-91
2023/06/30 06:27:25;;;;;;;;;;;25.80;51.10;;;;;;4900659;29;19911;-90
2023/06/30 06:29:51;;;;;;;;;;;25.90;51.10;;;;;;4900565;29;20097;-90
2023/06/30 06:32:18;;;;;;;;;;;25.90;51.00;;;;;;4900070;29;19911;-90
2023/06/30 06:34:51;;;;;;;;;;;25.90;51.00;;;;;;4899118;29;20042;-90
2023/06/30 06:37:20;;;;;;;;;;;26.00;51.00;;;;;;4900618;29;19921;-90
2023/06/30 06:39:45;;;;;;;;;;;25.90;50.80;;;;;;4895720;29;19919;-90
2023/06/30 06:42:11;;;;;;;;;;;26.00;50.90;;;;;;4898088;29;19922;-90
2023/06/30 06:44:37;;;;;;;;;;;26.00;50.90;;;;;;4895512;29;20197;-90
2023/06/30 06:47:21;;;;;;;;;;;26.00;50.80;;;;;;4895403;29;20161;-90
2023/06/30 06:49:46;;;;;;;;;;;26.00;50.80;;;;;;4882625;29;19912;-89
2023/06/30 06:52:12;;;;;;;;;;;26.10;50.80;;;;;;4894568;29;19987;-89
2023/06/30 06:54:38;;;;;;;;;;;26.20;50.80;;;;;;4892258;29;19911;-90
2023/06/30 06:57:06;;;;;;;;;;;26.20;50.70;;;;;;4888145;29;19978;-90
2023/06/30 06:59:31;;;;;;;;;;;26.20;50.60;;;;;;4891472;29;19915;-90
2023/06/30 07:02:01;;;;;;;;;;;26.30;50.60;;;;;;4894805;29;20289;-89
2023/06/30 07:04:26;;;;;;;;;;;26.40;50.60;;;;;;4897345;29;19911;-89
2023/06/30 07:06:52;;;;;;;;;;;26.40;50.50;;;;;;4895189;29;19941;-90
2023/06/30 07:09:17;;;;;;;;;;;26.40;50.50;;;;;;4892990;29;19919;-89
2023/06/30 07:11:43;;;;;;;;;;;26.50;50.50;;;;;;4894345;29;19937;-89
2023/06/30 07:14:08;;;;;;;;;;;26.40;50.50;;;;;;4895872;29;20417;-89
2023/06/30 07:16:34;;;;;;;;;;;26.40;50.50;;;;;;4889746;29;19923;-89
2023/06/30 07:19:06;;;;;;;;;;;26.40;50.60;;;;;;4895884;29;20280;-89
2023/06/30 07:21:32;;;;;;;;;;;26.40;50.60;;;;;;4906165;29;19916;-89
2023/06/30 07:23:57;;;;;;;;;;;26.40;50.60;;;;;;4897203;29;19992;-89
2023/06/30 07:26:23;;;;;;;;;;;26.50;50.60;;;;;;4905362;29;20303;-89
2023/06/30 07:28:48;;;;;;;;;;;26.50;50.50;;;;;;4893681;29;19912;-89
2023/06/30 07:31:15;;;;;;;;;;;26.60;50.40;;;;;;4894359;29;19911;-89
2023/06/30 07:33:42;;;;;;;;;;;26.70;50.50;;;;;;4896732;29;20097;-89
2023/06/30 07:36:08;;;;;;;;;;;26.70;50.30;;;;;;4893981;29;19912;-90
2023/06/30 07:38:33;;;;;;;;;;;26.80;50.30;;;;;;4894615;29;19922;-89
2023/06/30 07:40:59;;;;;;;;;;;26.80;50.30;;;;;;4894411;29;19962;-90
2023/06/30 07:43:24;;;;;;;;;;;26.90;50.20;;;;;;4891758;29;19911;-89
2023/06/30 07:45:50;;;;;;;;;;;27.00;50.20;;;;;;4883132;29;19983;-89
2023/06/30 07:48:16;;;;;;;;;;;27.10;50.10;;;;;;4892624;29;19920;-89
2023/06/30 07:50:41;;;;;;;;;;;27.10;50.10;;;;;;4890720;29;19923;-89
2023/06/30 07:53:08;;;;;;;;;;;27.20;50.00;;;;;;4888807;29;20309;-90
2023/06/30 07:55:33;;;;;;;;;;;27.30;50.00;;;;;;4892223;29;19919;-89
2023/06/30 07:57:59;;;;;;;;;;;27.40;49.90;;;;;;4896261;29;19911;-89
2023/06/30 08:00:28;;;;;;;;;;;27.50;49.80;;;;;;4894074;29;19941;-90
2023/06/30 08:02:54;;;;;;;;;;;27.50;49.70;;;;;;4893616;29;19911;-89
2023/06/30 08:05:20;;;;;;;;;;;27.60;49.60;;;;;;4895173;29;19946;-88
2023/06/30 08:07:46;;;;;;;;;;;27.70;49.60;;;;;;4893438;29;20164;-89
2023/06/30 08:10:12;;;;;;;;;;;27.80;49.50;;;;;;4902607;29;19918;-90
2023/06/30 08:12:38;;;;;;;;;;;27.80;49.50;;;;;;4888928;29;19919;-90
2023/06/30 08:15:09;;;;;;;;;;;27.70;49.50;;;;;;4882777;29;19997;-90
2023/06/30 08:17:35;;;;;;;;;;;27.70;49.60;;;;;;4890017;29;20348;-90
2023/06/30 08:20:00;;;;;;;;;;;27.70;49.60;;;;;;4893045;29;20002;-90
2023/06/30 08:22:27;;;;;;;;;;;27.60;49.60;;;;;;4892549;29;19911;-89
2023/06/30 08:24:53;;;;;;;;;;;27.60;49.70;;;;;;4893142;29;19922;-90
2023/06/30 08:27:19;;;;;;;;;;;27.60;49.70;;;;;;4890981;29;19919;-90
2023/06/30 08:29:44;;;;;;;;;;;27.70;49.70;;;;;;4892160;29;19911;-90
2023/06/30 08:32:10;;;;;;;;;;;27.70;49.70;;;;;;4892301;29;19939;-90
2023/06/30 08:34:42;;;;;;;;;;;27.70;49.60;;;;;;4893648;29;19972;-90
2023/06/30 08:37:08;;;;;;;;;;;27.80;49.60;;;;;;4892522;29;19916;-89
2023/06/30 08:39:34;;;;;;;;;;;27.90;49.60;;;;;;4892102;29;19978;-90
2023/06/30 08:41:59;;;;;;;;;;;27.80;49.60;;;;;;4892218;29;19911;-90
2023/06/30 08:44:34;;;;;;;;;;;27.90;49.60;;;;;;4892776;29;19922;-90
2023/06/30 08:47:00;;;;;;;;;;;27.90;49.60;;;;;;4904248;29;20240;-90
2023/06/30 08:49:27;;;;;;;;;;;27.90;49.60;;;;;;4893985;29;20265;-89
2023/06/30 08:51:55;;;;;;;;;;;27.80;49.60;;;;;;4895437;29;19915;-89
2023/06/30 08:54:20;;;;;;;;;;;27.90;49.70;;;;;;4894200;29;19945;-90
2023/06/30 08:56:46;;;;;;;;;;;27.90;49.60;;;;;;4904827;29;20002;-90
2023/06/30 08:59:12;;;;;;;;;;;27.90;49.70;;;;;;4892907;29;19999;-90
2023/06/30 09:01:38;;;;;;;;;;;27.90;49.60;;;;;;4891992;29;20022;-90
2023/06/30 09:04:05;;;;;;;;;;;28.00;49.60;;;;;;4889248;29;19915;-90
2023/06/30 09:06:32;;;;;;;;;;;28.00;49.60;;;;;;4893720;29;19911;-90
2023/06/30 09:09:07;;;;;;;;;;;28.00;49.60;;;;;;4892143;29;19974;-90
2023/06/30 09:11:33;;;;;;;;;;;28.10;49.60;;;;;;4888661;29;19912;-90
2023/06/30 09:14:01;;;;;;;;;;;28.10;49.60;;;;;;4885647;29;19923;-90
2023/06/30 09:16:31;;;;;;;;;;;28.10;49.60;;;;;;4893808;29;19953;-91
2023/06/30 09:18:56;;;;;;;;;;;28.10;49.60;;;;;;4888153;29;20292;-90
2023/06/30 09:21:22;;;;;;;;;;;28.20;49.60;;;;;;4891381;29;20014;-90
2023/06/30 09:23:48;;;;;;;;;;;28.20;49.60;;;;;;4895638;29;19922;-91
2023/06/30 09:26:23;;;;;;;;;;;28.20;49.60;;;;;;4891838;29;20022;-91
2023/06/30 09:28:55;;;;;;;;;;;28.20;49.60;;;;;;4895186;29;19999;-90
2023/06/30 09:31:27;;;;;;;;;;;28.20;49.60;;;;;;4883309;29;19915;-90
2023/06/30 09:34:02;;;;;;;;;;;28.20;49.60;;;;;;4890770;29;19922;-90
2023/06/30 09:36:27;;;;;;;;;;;28.30;49.60;;;;;;4899917;29;20283;-90
2023/06/30 09:38:56;;;;;;;;;;;28.30;49.60;;;;;;4903716;29;19911;-90
2023/06/30 09:41:22;;;;;;;;;;;28.30;49.60;;;;;;4891992;29;19912;-89
2023/06/30 09:43:55;;;;;;;;;;;28.30;49.60;;;;;;4888040;29;20161;-91
2023/06/30 09:46:21;;;;;;;;;;;28.40;49.60;;;;;;4885277;29;19911;-90
2023/06/30 09:48:53;;;;;;;;;;;28.40;49.60;;;;;;4893834;29;19911;-90
2023/06/30 09:51:22;;;;;;;;;;;28.40;49.50;;;;;;4901719;29;20021;-91
2023/06/30 09:53:54;;;;;;;;;;;28.50;49.60;;;;;;4897049;29;19911;-90
2023/06/30 09:56:21;;;;;;;;;;;28.50;49.50;;;;;;4892677;29;19915;-91
2023/06/30 09:58:47;;;;;;;;;;;28.50;49.50;;;;;;4906440;29;20138;-91
2023/06/30 10:01:23;;;;;;;;;;;28.50;49.50;;;;;;4892825;29;20387;-90
2023/06/30 10:03:52;;;;;;;;;;;28.50;49.50;;;;;;4898690;29;19945;-90
2023/06/30 10:06:21;;;;;;;;;;;28.60;49.50;;;;;;4889607;29;20007;-91
2023/06/30 10:08:51;;;;;;;;;;;28.60;49.50;;;;;;4902415;29;20294;-90
2023/06/30 10:11:22;;;;;;;;;;;28.60;49.50;;;;;;4892699;29;19911;-90
2023/06/30 10:13:58;;;;;;;;;;;28.60;49.50;;;;;;4892813;29;19911;-90
2023/06/30 10:16:24;;;;;;;;;;;28.60;49.50;;;;;;4889750;29;20099;-90
2023/06/30 10:18:50;;;;;;;;;;;28.60;49.50;;;;;;4890125;29;19980;-91
2023/06/30 10:21:16;;;;;;;;;;;28.60;49.60;;;;;;4888347;29;19922;-91
2023/06/30 10:23:42;;;;;;;;;;;28.60;49.60;;;;;;4903655;29;19919;-91
2023/06/30 10:26:07;;;;;;;;;;;28.60;49.60;;;;;;4885926;29;19978;-90
2023/06/30 10:28:35;;;;;;;;;;;28.60;49.60;;;;;;4892696;29;19954;-90
2023/06/30 10:31:02;;;;;;;;;;;28.60;49.60;;;;;;4887747;29;19912;-90
2023/06/30 10:33:30;;;;;;;;;;;28.60;49.60;;;;;;4907732;29;19911;-91
2023/06/30 10:35:57;;;;;;;;;;;28.60;49.60;;;;;;4897669;29;20001;-91
2023/06/30 10:38:23;;;;;;;;;;;28.70;49.70;;;;;;4896097;29;19911;-89
2023/06/30 10:40:49;;;;;;;;;;;28.70;49.70;;;;;;4903482;29;19916;-90
2023/06/30 10:43:14;;;;;;;;;;;28.70;49.60;;;;;;4895022;29;19919;-90
2023/06/30 10:45:58;;;;;;;;;;;28.70;49.70;;;;;;4894648;29;20307;-91
2023/06/30 10:48:26;;;;;;;;;;;28.70;49.70;;;;;;4888693;29;20090;-91
2023/06/30 10:50:52;;;;;;;;;;;28.70;49.70;;;;;;4895659;29;19918;-90
2023/06/30 10:53:18;;;;;;;;;;;28.70;49.70;;;;;;4893800;29;20280;-90
2023/06/30 10:55:44;;;;;;;;;;;28.70;49.70;;;;;;4892841;29;20101;-90
2023/06/30 10:58:09;;;;;;;;;;;28.70;49.70;;;;;;4900684;29;20093;-90
2023/06/30 11:00:35;;;;;;;;;;;28.70;49.70;;;;;;4890809;29;20018;-90
2023/06/30 11:03:03;;;;;;;;;;;28.70;49.70;;;;;;4882007;29;19951;-90
2023/06/30 11:05:30;;;;;;;;;;;28.70;49.70;;;;;;4891804;29;19979;-90
2023/06/30 11:08:02;;;;;;;;;;;28.70;49.70;;;;;;4884057;29;19912;-90
2023/06/30 11:10:35;;;;;;;;;;;28.70;49.80;;;;;;4903122;29;19999;-90
2023/06/30 11:13:05;;;;;;;;;;;28.70;49.70;;;;;;4891693;29;20212;-90
2023/06/30 11:15:34;;;;;;;;;;;28.70;49.80;;;;;;4895118;29;19925;-90
2023/06/30 11:18:00;;;;;;;;;;;28.70;49.80;;;;;;4901533;29;20267;-90
2023/06/30 11:20:26;;;;;;;;;;;28.70;49.80;;;;;;4892616;29;19923;-90
2023/06/30 11:22:56;;;;;;;;;;;28.70;49.90;;;;;;4892770;29;19986;-90
2023/06/30 11:25:21;;;;;;;;;;;28.70;49.90;;;;;;4891944;29;19911;-90
2023/06/30 11:27:47;;;;;;;;;;;28.70;49.90;;;;;;4898770;29;19986;-88
2023/06/30 11:30:16;;;;;;;;;;;28.70;49.80;;;;;;4891107;29;19926;-90
2023/06/30 11:32:41;;;;;;;;;;;28.80;49.90;;;;;;4892806;29;19911;-89
2023/06/30 11:35:11;;;;;;;;;;;28.80;49.90;;;;;;4887827;29;20216;-90
2023/06/30 11:37:37;;;;;;;;;;;28.70;49.90;;;;;;4880843;29;19911;-89
2023/06/30 11:40:04;;;;;;;;;;;28.70;49.90;;;;;;4889932;29;19922;-89
2023/06/30 11:42:36;;;;;;;;;;;28.70;50.00;;;;;;4888535;29;20305;-90
2023/06/30 11:45:05;;;;;;;;;;;28.70;50.00;;;;;;4888505;29;20014;-89
2023/06/30 11:47:30;;;;;;;;;;;28.70;50.00;;;;;;4887396;29;19915;-89
2023/06/30 11:49:56;;;;;;;;;;;28.70;50.00;;;;;;4891562;29;19911;-90
2023/06/30 11:52:21;;;;;;;;;;;28.70;50.00;;;;;;4889137;29;19949;-90
2023/06/30 11:54:47;;;;;;;;;;;28.70;50.10;;;;;;4893095;29;20185;-89
2023/06/30 11:57:12;;;;;;;;;;;28.70;50.00;;;;;;4890713;29;19911;-91
2023/06/30 11:59:38;;;;;;;;;;;28.70;50.00;;;;;;4893802;29;19915;-89
2023/06/30 12:02:04;;;;;;;;;;;28.70;50.00;;;;;;4901159;29;20263;-89
2023/06/30 12:04:33;;;;;;;;;;;28.80;50.00;;;;;;4905572;29;19915;-89
2023/06/30 12:06:59;;;;;;;;;;;28.80;50.00;;;;;;4892322;29;19919;-89
2023/06/30 12:09:24;;;;;;;;;;;28.80;50.00;;;;;;4889254;29;20161;-90
2023/06/30 12:11:50;;;;;;;;;;;28.80;50.00;;;;;;4889751;29;20126;-90
2023/06/30 12:14:17;;;;;;;;;;;28.80;50.00;;;;;;4894042;29;20038;-90
2023/06/30 12:16:48;;;;;;;;;;;28.80;50.10;;;;;;4889288;29;19915;-90
2023/06/30 12:19:13;;;;;;;;;;;28.80;50.00;;;;;;4890834;29;19912;-89
2023/06/30 12:21:55;;;;;;;;;;;28.80;50.00;;;;;;4895770;29;19911;-90
2023/06/30 12:24:21;;;;;;;;;;;28.90;50.00;;;;;;4881236;29;19923;-89
2023/06/30 12:26:51;;;;;;;;;;;28.90;50.00;;;;;;4888765;29;19922;-90
2023/06/30 12:29:17;;;;;;;;;;;28.90;50.00;;;;;;4890001;29;19998;-89
2023/06/30 12:31:44;;;;;;;;;;;28.90;50.00;;;;;;4885509;29;19922;-89
2023/06/30 12:34:10;;;;;;;;;;;28.90;50.00;;;;;;4886874;29;19911;-90
2023/06/30 12:36:36;;;;;;;;;;;28.90;50.00;;;;;;4890471;29;19943;-89
2023/06/30 12:39:01;;;;;;;;;;;28.90;50.00;;;;;;4887971;29;19918;-89
2023/06/30 12:41:27;;;;;;;;;;;28.90;50.00;;;;;;4887250;29;19911;-89
2023/06/30 12:43:53;;;;;;;;;;;28.90;50.10;;;;;;4886888;29;19911;-89
2023/06/30 12:46:19;;;;;;;;;;;28.90;50.10;;;;;;4888210;29;19942;-89
2023/06/30 12:48:45;;;;;;;;;;;28.90;50.10;;;;;;4886613;29;19911;-89
2023/06/30 12:51:10;;;;;;;;;;;28.90;50.10;;;;;;4886745;29;19998;-88
2023/06/30 12:53:36;;;;;;;;;;;28.90;50.10;;;;;;4897308;29;19912;-88
2023/06/30 12:56:02;;;;;;;;;;;28.90;50.00;;;;;;4889552;29;19912;-89
2023/06/30 12:58:27;;;;;;;;;;;28.90;50.10;;;;;;4890645;29;20026;-90
2023/06/30 13:00:53;;;;;;;;;;;28.90;50.10;;;;;;4886134;29;20257;-89
2023/06/30 13:03:19;;;;;;;;;;;28.90;50.20;;;;;;4879817;29;20192;-90
2023/06/30 13:05:45;;;;;;;;;;;28.90;50.20;;;;;;4887607;29;20554;-90
2023/06/30 13:08:11;;;;;;;;;;;28.80;50.10;;;;;;4887678;29;19988;-89
2023/06/30 13:10:42;;;;;;;;;;;28.90;50.20;;;;;;4890425;29;19912;-89
2023/06/30 13:13:08;;;;;;;;;;;28.80;50.20;;;;;;4886742;29;20075;-89
2023/06/30 13:15:36;;;;;;;;;;;28.80;50.20;;;;;;4901180;29;19978;-89
2023/06/30 13:18:01;;;;;;;;;;;28.80;50.20;;;;;;4890570;29;19975;-89
2023/06/30 13:20:27;;;;;;;;;;;28.80;50.20;;;;;;4890441;29;20083;-89
2023/06/30 13:22:53;;;;;;;;;;;28.80;50.20;;;;;;4906144;29;19987;-89
2023/06/30 13:25:18;;;;;;;;;;;28.80;50.30;;;;;;4899817;29;20326;-90
2023/06/30 13:27:44;;;;;;;;;;;28.80;50.30;;;;;;4903819;29;19942;-89
2023/06/30 13:30:13;;;;;;;;;;;28.80;50.30;;;;;;4876966;29;19923;-89
2023/06/30 13:32:44;;;;;;;;;;;28.80;50.30;;;;;;4893019;29;20260;-89
2023/06/30 13:35:10;;;;;;;;;;;28.80;50.30;;;;;;4894868;29;20208;-89
2023/06/30 13:37:39;;;;;;;;;;;28.90;50.40;;;;;;4896382;29;19921;-89
2023/06/30 13:40:06;;;;;;;;;;;28.90;50.40;;;;;;4903879;29;20146;-89
2023/06/30 13:42:32;;;;;;;;;;;28.90;50.40;;;;;;4885008;29;20015;-88
2023/06/30 13:45:00;;;;;;;;;;;28.90;50.40;;;;;;4903788;29;20423;-88
2023/06/30 13:47:25;;;;;;;;;;;28.90;50.40;;;;;;4891304;29;19922;-89
2023/06/30 13:49:51;;;;;;;;;;;28.90;50.40;;;;;;4894075;29;19911;-88
2023/06/30 13:52:16;;;;;;;;;;;28.90;50.40;;;;;;4891374;29;19946;-90
2023/06/30 13:54:42;;;;;;;;;;;28.90;50.40;;;;;;4905168;29;20093;-89
2023/06/30 13:57:08;;;;;;;;;;;28.80;50.40;;;;;;4894881;29;20157;-89
2023/06/30 13:59:33;;;;;;;;;;;28.80;50.40;;;;;;4893101;29;19915;-89
2023/06/30 14:01:59;;;;;;;;;;;28.80;50.40;;;;;;4894399;29;19923;-88
2023/06/30 14:04:24;;;;;;;;;;;28.80;50.50;;;;;;4893053;29;20003;-88
2023/06/30 14:06:50;;;;;;;;;;;28.80;50.50;;;;;;4893337;29;20265;-88
2023/06/30 14:09:16;;;;;;;;;;;28.80;50.40;;;;;;4895718;29;19915;-88
2023/06/30 14:11:45;;;;;;;;;;;28.80;50.40;;;;;;4898604;29;19911;-88
2023/06/30 14:14:13;;;;;;;;;;;28.80;50.50;;;;;;4892648;29;19915;-88